createdAt,value
2019-06-08T00:01:02.117Z,100783.20
2019-06-08T00:06:04.559Z,100781.39
2019-06-08T00:11:07.255Z,100773.95
2019-06-08T00:16:09.756Z,100780.92
2019-06-08T00:21:11.922Z,100779.91
2019-06-08T00:26:15.913Z,100794.81
2019-06-08T00:31:19.990Z,100785.72
2019-06-08T00:36:22.995Z,100809.08
2019-06-08T00:41:26.593Z,100810.41
2019-06-08T00:46:28.742Z,100822.97
2019-06-08T00:51:31.029Z,100830.09
2019-06-08T00:56:33.802Z,100845.48
2019-06-08T01:01:36.072Z,100852.26
2019-06-08T01:06:38.289Z,100849.95
2019-06-08T01:11:40.496Z,100863.68
2019-06-08T01:16:42.622Z,100868.63
2019-06-08T01:21:44.807Z,100879.06
2019-06-08T01:26:47.352Z,100873.92
2019-06-08T01:31:50.149Z,100888.33
2019-06-08T01:36:52.370Z,100895.74
2019-06-08T01:41:54.574Z,100916.58
2019-06-08T01:46:56.714Z,100921.34
2019-06-08T01:52:00.301Z,100927.92
2019-06-08T01:57:02.999Z,100938.48
2019-06-08T02:02:05.445Z,100966.23
2019-06-08T02:07:07.726Z,101000.37
2019-06-08T02:12:10.482Z,101011.53
2019-06-08T02:17:12.807Z,101003.14
2019-06-08T02:22:15.047Z,101022.09
2019-06-08T02:27:17.543Z,101044.50
2019-06-08T02:32:19.731Z,101065.25
2019-06-08T02:37:22.231Z,101082.45
2019-06-08T02:42:24.738Z,101093.16
2019-06-08T02:47:28.396Z,101100.63
2019-06-08T02:52:34.090Z,101104.65
2019-06-08T02:57:39.879Z,101092.95
2019-06-08T03:02:43.243Z,101094.31
2019-06-08T03:07:50.053Z,101127.27
2019-06-08T03:12:54.820Z,101143.39
2019-06-08T03:17:57.622Z,101141.84
2019-06-08T03:23:00.114Z,101140.52
2019-06-08T03:28:02.288Z,101141.30
2019-06-08T03:33:04.933Z,101116.45
2019-06-08T03:38:07.661Z,101138.77
2019-06-08T03:43:11.716Z,101126.02
2019-06-08T03:48:14.799Z,101131.72
2019-06-08T03:53:17.837Z,101128.49
2019-06-08T03:58:20.732Z,101117.88
2019-06-08T04:03:23.025Z,101106.91
2019-06-08T04:08:25.439Z,101102.06
2019-06-08T04:13:27.867Z,101115.86
2019-06-08T04:18:30.547Z,101123.39
2019-06-08T04:23:32.697Z,101128.07
2019-06-08T04:28:35.032Z,101130.53
2019-06-08T04:33:37.777Z,101131.09
2019-06-08T04:38:41.333Z,101168.63
2019-06-08T04:43:45.462Z,101201.67
2019-06-08T04:48:50.055Z,101203.36
2019-06-08T04:53:53.637Z,101210.47
2019-06-08T04:58:56.552Z,101211.83
2019-06-08T05:03:59.048Z,101228.78
2019-06-08T05:09:01.489Z,101228.86
2019-06-08T05:14:05.876Z,101239.88
2019-06-08T05:19:08.661Z,101254.68
2019-06-08T05:24:11.749Z,101280.48
2019-06-08T05:29:14.127Z,101290.93
2019-06-08T05:34:16.871Z,101303.64
2019-06-08T05:39:19.655Z,101311.29
2019-06-08T05:44:22.482Z,101303.12
2019-06-08T05:49:25.012Z,101303.47
2019-06-08T05:54:27.180Z,101298.59
2019-06-08T05:59:29.333Z,101304.35
2019-06-08T06:04:31.589Z,101311.11
2019-06-08T06:09:34.426Z,101307.40
2019-06-08T06:14:37.298Z,101327.44
2019-06-08T06:19:41.076Z,101321.27
2019-06-08T06:24:45.454Z,101321.78
2019-06-08T06:29:47.946Z,101311.28
2019-06-08T06:34:50.242Z,101324.07
2019-06-08T06:39:53.682Z,101320.14
2019-06-08T06:44:56.016Z,101326.94
2019-06-08T06:49:58.592Z,101340.88
2019-06-08T06:55:01.958Z,101330.34
2019-06-08T07:00:06.518Z,101335.13
2019-06-08T07:05:09.756Z,101364.55
2019-06-08T07:10:12.727Z,101384.14
2019-06-08T07:15:26.523Z,101402.16
2019-06-08T07:20:29.813Z,101401.23
2019-06-08T07:25:32.215Z,101398.61
2019-06-08T07:30:34.772Z,101407.60
2019-06-08T07:35:38.463Z,101411.28
2019-06-08T07:40:41.236Z,101420.81
2019-06-08T07:45:43.853Z,101426.83
2019-06-08T07:50:48.253Z,101438.84
2019-06-08T07:55:53.522Z,101454.59
2019-06-08T08:01:03.668Z,101426.80
2019-06-08T08:06:00.879Z,101454.63
2019-06-08T08:11:03.529Z,101485.84
2019-06-08T08:16:06.367Z,101486.23
2019-06-08T08:21:21.182Z,101495.77
2019-06-08T08:26:13.586Z,101495.94
2019-06-08T08:31:18.404Z,101484.12
2019-06-08T08:36:21.096Z,101481.35
2019-06-08T08:41:24.734Z,101477.87
2019-06-08T08:46:28.578Z,101486.83
2019-06-08T08:51:31.642Z,101466.00
2019-06-08T08:56:34.774Z,101448.16
2019-06-08T09:01:38.375Z,101433.70
2019-06-08T09:06:41.138Z,101405.27
2019-06-08T09:11:43.985Z,101444.63
2019-06-08T09:16:49.205Z,101464.17
2019-06-08T09:21:53.024Z,101507.89
2019-06-08T09:27:00.068Z,101514.09
2019-06-08T09:32:03.109Z,101511.66
2019-06-08T09:37:08.112Z,101526.09
2019-06-08T09:42:11.010Z,101531.25
2019-06-08T09:47:13.650Z,101512.57
2019-06-08T09:52:18.924Z,101524.22
2019-06-08T09:57:22.425Z,101551.34
2019-06-08T10:02:28.143Z,101482.22
2019-06-08T10:07:31.365Z,101561.12
2019-06-08T10:12:34.183Z,101571.91
2019-06-08T10:17:37.765Z,101567.47
2019-06-08T10:22:42.238Z,101568.52
2019-06-08T10:27:44.933Z,101564.07
2019-06-08T10:32:50.783Z,101561.66
2019-06-08T10:37:55.642Z,101559.64
2019-06-08T10:43:00.860Z,101548.55
2019-06-08T10:48:03.219Z,101534.72
2019-06-08T10:53:10.458Z,101528.41
2019-06-08T10:58:12.197Z,101547.75
2019-06-08T11:03:15.930Z,101558.98
2019-06-08T11:08:19.048Z,101541.53
2019-06-08T11:13:22.024Z,101544.04
2019-06-08T11:18:24.982Z,101517.83
2019-06-08T11:23:28.875Z,101517.83
2019-06-08T11:28:31.471Z,101518.15
2019-06-08T11:33:34.748Z,101499.91
2019-06-08T11:38:38.260Z,101523.28
2019-06-08T11:43:41.020Z,101518.34
2019-06-08T11:48:43.378Z,101524.73
2019-06-08T11:53:49.934Z,101520.39
2019-06-08T11:58:53.006Z,101539.53
2019-06-08T12:03:57.821Z,101541.71
2019-06-08T12:09:00.542Z,101537.29
2019-06-08T12:14:04.774Z,101545.13
2019-06-08T12:19:11.962Z,101547.11
2019-06-08T12:24:12.364Z,101537.11
2019-06-08T12:29:16.662Z,101554.38
2019-06-08T12:34:19.274Z,101542.15
2019-06-08T12:39:21.573Z,101554.50
2019-06-08T12:44:28.484Z,101541.88
2019-06-08T12:49:30.390Z,101536.82
2019-06-08T12:54:33.182Z,101538.64
2019-06-08T12:59:35.471Z,101509.77
2019-06-08T13:04:38.487Z,101543.39
2019-06-08T13:09:41.717Z,101532.59
2019-06-08T13:14:43.907Z,101544.28
2019-06-08T13:19:48.215Z,101522.83
2019-06-08T13:24:51.623Z,101542.13
2019-06-08T13:29:53.957Z,101542.89
2019-06-08T13:34:58.263Z,101528.17
2019-06-08T13:40:02.083Z,101531.51
2019-06-08T13:45:07.524Z,101542.09
2019-06-08T13:50:13.051Z,101555.34
2019-06-08T13:55:34.689Z,101538.27
2019-06-08T14:00:33.203Z,101550.58
2019-06-08T14:05:38.835Z,101544.43
2019-06-08T14:10:41.489Z,101557.08
2019-06-08T14:15:43.850Z,101559.83
2019-06-08T14:20:48.385Z,101561.15
2019-06-08T14:25:56.751Z,101559.33
2019-06-08T14:30:55.049Z,101569.89
2019-06-08T14:35:59.179Z,101566.95
2019-06-08T14:41:02.314Z,101569.05
2019-06-08T14:46:04.834Z,101570.08
2019-06-08T14:51:08.751Z,101578.36
2019-06-08T14:56:13.487Z,101581.94
2019-06-08T15:01:19.462Z,101578.37
2019-06-08T15:06:21.089Z,101577.11
2019-06-08T15:11:23.472Z,101596.06
2019-06-08T15:16:25.833Z,101601.00
2019-06-08T15:21:32.654Z,101585.02
2019-06-08T15:26:42.331Z,101596.11
2019-06-08T15:31:39.048Z,101609.23
2019-06-08T15:36:41.789Z,101608.67
2019-06-08T15:41:44.339Z,101622.16
2019-06-08T15:46:49.310Z,101624.41
2019-06-08T15:51:52.112Z,101627.39
2019-06-08T15:56:55.235Z,101630.46
2019-06-08T16:01:57.487Z,101625.09
2019-06-08T16:07:00.210Z,101629.49
2019-06-08T16:12:03.006Z,101639.77
2019-06-08T16:17:06.514Z,101623.31
2019-06-08T16:22:08.675Z,101628.77
2019-06-08T16:27:12.168Z,101625.11
2019-06-08T16:32:14.476Z,101629.14
2019-06-08T16:37:17.659Z,101629.23
2019-06-08T16:42:19.851Z,101652.14
2019-06-08T16:47:22.077Z,101651.75
2019-06-08T16:52:25.309Z,101652.91
2019-06-08T16:57:28.813Z,101651.27
2019-06-08T17:02:32.731Z,101650.87
2019-06-08T17:07:35.557Z,101662.48
2019-06-08T17:12:39.113Z,101660.81
2019-06-08T17:17:41.496Z,101665.23
2019-06-08T17:22:44.545Z,101656.61
2019-06-08T17:27:46.693Z,101670.38
2019-06-08T17:32:49.741Z,101674.22
2019-06-08T17:37:52.633Z,101671.80
2019-06-08T17:42:55.510Z,101681.31
2019-06-08T17:47:57.879Z,101687.71
2019-06-08T17:53:00.080Z,101684.95
2019-06-08T17:58:02.263Z,101687.73
2019-06-08T18:03:05.063Z,101699.47
2019-06-08T18:08:07.828Z,101693.49
2019-06-08T18:13:10.961Z,101698.67
2019-06-08T18:18:14.270Z,101701.13
2019-06-08T18:23:17.336Z,101709.99
2019-06-08T18:28:19.791Z,101708.48
2019-06-08T18:33:22.203Z,101714.62
2019-06-08T18:38:27.281Z,101720.81
2019-06-08T18:43:29.433Z,101720.88
2019-06-08T18:48:32.764Z,101730.23
2019-06-08T18:53:49.223Z,101732.45
2019-06-08T18:58:42.169Z,101750.30
2019-06-08T19:03:47.923Z,101764.34
2019-06-08T19:08:51.059Z,101762.16
2019-06-08T19:13:54.376Z,101771.73
2019-06-08T19:18:58.111Z,101778.75
2019-06-08T19:24:01.095Z,101789.01
2019-06-08T19:29:03.671Z,101794.49
2019-06-08T19:34:07.651Z,101802.70
2019-06-08T19:39:10.454Z,101813.94
2019-06-08T19:44:13.848Z,101825.05
2019-06-08T19:49:17.319Z,101833.22
2019-06-08T19:54:19.879Z,101829.20
2019-06-08T19:59:22.206Z,101839.94
2019-06-08T20:04:27.553Z,101841.77
2019-06-08T20:09:31.425Z,101854.51
2019-06-08T20:14:34.352Z,101861.73
2019-06-08T20:19:38.709Z,101861.27
2019-06-08T20:24:42.466Z,101859.27
2019-06-08T20:29:47.843Z,101860.02
2019-06-08T20:34:51.129Z,101870.11
2019-06-08T20:40:07.117Z,101877.56
2019-06-08T20:45:00.236Z,101881.89
2019-06-08T20:50:04.521Z,101891.02
2019-06-08T20:55:07.981Z,101888.39
2019-06-08T21:00:12.002Z,101891.88
2019-06-08T21:05:15.328Z,101901.74
2019-06-08T21:10:17.972Z,101895.73
2019-06-08T21:15:21.619Z,101906.55
2019-06-08T21:20:24.319Z,101905.48
2019-06-08T21:25:28.101Z,101913.28
2019-06-08T21:30:31.802Z,101917.23
2019-06-08T21:35:34.291Z,101909.91
2019-06-08T21:40:37.997Z,101913.39
2019-06-08T21:45:41.089Z,101922.24
2019-06-08T21:50:43.575Z,101925.59
2019-06-08T21:55:46.505Z,101919.73
2019-06-08T22:00:52.562Z,101917.92
2019-06-08T22:05:58.465Z,101918.16
2019-06-08T22:11:00.736Z,101927.48
2019-06-08T22:16:04.293Z,101930.23
2019-06-08T22:21:08.306Z,101930.48
2019-06-08T22:26:11.044Z,101929.05
2019-06-08T22:31:14.140Z,101936.55
2019-06-08T22:36:17.071Z,101937.27
2019-06-08T22:41:20.189Z,101933.41
2019-06-08T22:46:23.100Z,101934.48
2019-06-08T22:51:28.104Z,101939.73
2019-06-08T22:56:31.588Z,101938.63
2019-06-08T23:01:34.609Z,101944.17
2019-06-08T23:06:38.621Z,101950.83
2019-06-08T23:11:41.860Z,101950.92
2019-06-08T23:16:47.189Z,101949.94
2019-06-08T23:21:49.644Z,101946.57
2019-06-08T23:26:51.806Z,101944.55
2019-06-08T23:31:54.210Z,101949.30
2019-06-08T23:37:00.038Z,101949.26
2019-06-08T23:42:01.626Z,101956.06
2019-06-08T23:47:04.586Z,101951.80
2019-06-08T23:52:11.276Z,101962.78
2019-06-08T23:57:11.460Z,101966.59
